sensor_id;sensor_type;location;lat;lon;timestamp;temperature;humidity
46900;DHT22;32647;49.382;7.078;2024-02-21T00:01:34;7.00;99.90
46900;DHT22;32647;49.382;7.078;2024-02-21T00:04:20;7.00;99.90
46900;DHT22;32647;49.382;7.078;2024-02-21T00:07:06;7.00;99.90
46900;DHT22;32647;49.382;7.078;2024-02-21T00:09:52;6.90;99.90
46900;DHT22;32647;49.382;7.078;2024-02-21T00:12:38;7.00;99.90
46900;DHT22;32647;49.382;7.078;2024-02-21T00:15:24;7.00;99.90
46900;DHT22;32647;49.382;7.078;2024-02-21T00:18:10;7.00;99.90
46900;DHT22;32647;49.382;7.078;2024-02-21T00:20:56;7.00;99.90
46900;DHT22;32647;49.382;7.078;2024-02-21T00:23:42;7.00;99.90
46900;DHT22;32647;49.382;7.078;2024-02-21T00:26:28;6.90;99.90
46900;DHT22;32647;49.382;7.078;2024-02-21T00:29:14;6.90;99.90
46900;DHT22;32647;49.382;7.078;2024-02-21T00:32:01;6.90;99.90
46900;DHT22;32647;49.382;7.078;2024-02-21T00:34:47;6.90;99.90
46900;DHT22;32647;49.382;7.078;2024-02-21T00:37:33;6.90;99.90
46900;DHT22;32647;49.382;7.078;2024-02-21T00:40:19;6.80;99.90
46900;DHT22;32647;49.382;7.078;2024-02-21T00:43:07;6.80;99.90
46900;DHT22;32647;49.382;7.078;2024-02-21T00:45:53;6.80;99.90
46900;DHT22;32647;49.382;7.078;2024-02-21T00:48:39;6.70;99.90
46900;DHT22;32647;49.382;7.078;2024-02-21T00:51:25;6.70;99.90
46900;DHT22;32647;49.382;7.078;2024-02-21T00:54:11;6.70;99.90
46900;DHT22;32647;49.382;7.078;2024-02-21T00:56:57;6.70;99.90
46900;DHT22;32647;49.382;7.078;2024-02-21T00:59:43;6.60;99.90
46900;DHT22;32647;49.382;7.078;2024-02-21T01:02:29;6.60;99.90
46900;DHT22;32647;49.382;7.078;2024-02-21T01:05:17;6.50;99.90
46900;DHT22;32647;49.382;7.078;2024-02-21T01:08:03;6.60;99.90
46900;DHT22;32647;49.382;7.078;2024-02-21T01:10:49;6.50;99.90
46900;DHT22;32647;49.382;7.078;2024-02-21T01:13:35;6.50;99.90
46900;DHT22;32647;49.382;7.078;2024-02-21T01:16:21;6.50;99.90
46900;DHT22;32647;49.382;7.078;2024-02-21T01:19:07;6.50;99.90
46900;DHT22;32647;49.382;7.078;2024-02-21T01:21:53;6.50;99.90
46900;DHT22;32647;49.382;7.078;2024-02-21T01:24:39;6.60;99.90
46900;DHT22;32647;49.382;7.078;2024-02-21T01:27:25;6.70;99.90
46900;DHT22;32647;49.382;7.078;2024-02-21T01:30:11;6.60;99.90
46900;DHT22;32647;49.382;7.078;2024-02-21T01:32:57;6.70;99.90
46900;DHT22;32647;49.382;7.078;2024-02-21T01:35:43;6.70;99.90
46900;DHT22;32647;49.382;7.078;2024-02-21T01:38:29;6.70;99.90
46900;DHT22;32647;49.382;7.078;2024-02-21T01:41:15;6.70;99.90
46900;DHT22;32647;49.382;7.078;2024-02-21T01:44:02;6.70;99.90
46900;DHT22;32647;49.382;7.078;2024-02-21T01:46:48;6.60;99.90
46900;DHT22;32647;49.382;7.078;2024-02-21T01:49:34;6.60;99.90
46900;DHT22;32647;49.382;7.078;2024-02-21T01:52:20;6.60;99.90
46900;DHT22;32647;49.382;7.078;2024-02-21T01:55:07;6.60;99.90
46900;DHT22;32647;49.382;7.078;2024-02-21T01:57:53;6.50;99.90
46900;DHT22;32647;49.382;7.078;2024-02-21T02:00:44;6.50;99.90
46900;DHT22;32647;49.382;7.078;2024-02-21T02:03:31;6.60;99.90
46900;DHT22;32647;49.382;7.078;2024-02-21T02:06:17;6.70;99.90
46900;DHT22;32647;49.382;7.078;2024-02-21T02:09:03;6.70;99.90
46900;DHT22;32647;49.382;7.078;2024-02-21T02:11:49;6.70;99.90
46900;DHT22;32647;49.382;7.078;2024-02-21T02:14:35;6.60;99.90
46900;DHT22;32647;49.382;7.078;2024-02-21T02:17:21;6.70;99.90
46900;DHT22;32647;49.382;7.078;2024-02-21T02:20:07;6.70;99.90
46900;DHT22;32647;49.382;7.078;2024-02-21T02:22:54;6.80;99.90
46900;DHT22;32647;49.382;7.078;2024-02-21T02:25:40;6.80;99.90
46900;DHT22;32647;49.382;7.078;2024-02-21T02:28:26;6.80;99.90
46900;DHT22;32647;49.382;7.078;2024-02-21T02:31:12;6.70;99.90
46900;DHT22;32647;49.382;7.078;2024-02-21T02:33:58;6.80;99.90
46900;DHT22;32647;49.382;7.078;2024-02-21T02:36:44;6.80;99.90
46900;DHT22;32647;49.382;7.078;2024-02-21T02:39:30;6.80;99.90
46900;DHT22;32647;49.382;7.078;2024-02-21T02:42:16;6.80;99.90
46900;DHT22;32647;49.382;7.078;2024-02-21T02:45:02;6.80;99.90
46900;DHT22;32647;49.382;7.078;2024-02-21T02:47:49;6.90;99.90
46900;DHT22;32647;49.382;7.078;2024-02-21T02:50:35;6.80;99.90
46900;DHT22;32647;49.382;7.078;2024-02-21T02:53:21;6.80;99.90
46900;DHT22;32647;49.382;7.078;2024-02-21T02:56:06;6.80;99.90
46900;DHT22;32647;49.382;7.078;2024-02-21T02:58:52;6.80;99.90
46900;DHT22;32647;49.382;7.078;2024-02-21T03:01:38;6.80;99.90
46900;DHT22;32647;49.382;7.078;2024-02-21T03:04:24;6.80;99.90
46900;DHT22;32647;49.382;7.078;2024-02-21T03:07:11;6.80;99.90
46900;DHT22;32647;49.382;7.078;2024-02-21T03:09:57;6.80;99.90
46900;DHT22;32647;49.382;7.078;2024-02-21T03:12:43;6.70;99.90
46900;DHT22;32647;49.382;7.078;2024-02-21T03:15:29;6.80;99.90
46900;DHT22;32647;49.382;7.078;2024-02-21T03:18:15;6.80;99.90
46900;DHT22;32647;49.382;7.078;2024-02-21T03:21:02;6.80;99.90
46900;DHT22;32647;49.382;7.078;2024-02-21T03:23:48;6.80;99.90
46900;DHT22;32647;49.382;7.078;2024-02-21T03:26:34;6.80;99.90
46900;DHT22;32647;49.382;7.078;2024-02-21T03:29:20;6.80;99.90
46900;DHT22;32647;49.382;7.078;2024-02-21T03:32:06;6.70;99.90
46900;DHT22;32647;49.382;7.078;2024-02-21T03:34:51;6.70;99.90
46900;DHT22;32647;49.382;7.078;2024-02-21T03:37:38;6.70;99.90
46900;DHT22;32647;49.382;7.078;2024-02-21T03:40:24;6.70;99.90
46900;DHT22;32647;49.382;7.078;2024-02-21T03:43:10;6.70;99.90
46900;DHT22;32647;49.382;7.078;2024-02-21T03:45:56;6.70;99.90
46900;DHT22;32647;49.382;7.078;2024-02-21T03:48:41;6.60;99.90
46900;DHT22;32647;49.382;7.078;2024-02-21T03:51:27;6.60;99.90
46900;DHT22;32647;49.382;7.078;2024-02-21T03:54:13;6.70;99.90
46900;DHT22;32647;49.382;7.078;2024-02-21T03:56:59;6.70;99.90
46900;DHT22;32647;49.382;7.078;2024-02-21T03:59:46;6.70;99.90
46900;DHT22;32647;49.382;7.078;2024-02-21T04:02:32;6.60;99.90
46900;DHT22;32647;49.382;7.078;2024-02-21T04:05:18;6.60;99.90
46900;DHT22;32647;49.382;7.078;2024-02-21T04:08:07;6.70;99.90
46900;DHT22;32647;49.382;7.078;2024-02-21T04:10:53;6.60;99.90
46900;DHT22;32647;49.382;7.078;2024-02-21T04:13:39;6.50;99.90
46900;DHT22;32647;49.382;7.078;2024-02-21T04:16:25;6.60;99.90
46900;DHT22;32647;49.382;7.078;2024-02-21T04:19:11;6.60;99.90
46900;DHT22;32647;49.382;7.078;2024-02-21T04:21:57;6.50;99.90
46900;DHT22;32647;49.382;7.078;2024-02-21T04:24:43;6.50;99.90
46900;DHT22;32647;49.382;7.078;2024-02-21T04:27:29;6.50;99.90
46900;DHT22;32647;49.382;7.078;2024-02-21T04:30:15;6.50;99.90
46900;DHT22;32647;49.382;7.078;2024-02-21T04:33:01;6.50;99.90
46900;DHT22;32647;49.382;7.078;2024-02-21T04:35:47;6.50;99.90
46900;DHT22;32647;49.382;7.078;2024-02-21T04:38:33;6.40;99.90
46900;DHT22;32647;49.382;7.078;2024-02-21T04:41:19;6.40;99.90
46900;DHT22;32647;49.382;7.078;2024-02-21T04:44:05;6.40;99.90
46900;DHT22;32647;49.382;7.078;2024-02-21T04:46:51;6.40;99.90
46900;DHT22;32647;49.382;7.078;2024-02-21T04:49:37;6.40;99.90
46900;DHT22;32647;49.382;7.078;2024-02-21T04:52:24;6.40;99.90
46900;DHT22;32647;49.382;7.078;2024-02-21T04:55:09;6.40;99.90
46900;DHT22;32647;49.382;7.078;2024-02-21T04:57:55;6.40;99.90
46900;DHT22;32647;49.382;7.078;2024-02-21T05:00:41;6.40;99.90
46900;DHT22;32647;49.382;7.078;2024-02-21T05:03:27;6.40;99.90
46900;DHT22;32647;49.382;7.078;2024-02-21T05:06:13;6.40;99.90
46900;DHT22;32647;49.382;7.078;2024-02-21T05:08:59;6.30;99.90
46900;DHT22;32647;49.382;7.078;2024-02-21T05:11:45;6.30;99.90
46900;DHT22;32647;49.382;7.078;2024-02-21T05:14:34;6.30;99.90
46900;DHT22;32647;49.382;7.078;2024-02-21T05:17:20;6.30;99.90
46900;DHT22;32647;49.382;7.078;2024-02-21T05:20:06;6.30;99.90
46900;DHT22;32647;49.382;7.078;2024-02-21T05:22:52;6.30;99.90
46900;DHT22;32647;49.382;7.078;2024-02-21T05:25:38;6.30;99.90
46900;DHT22;32647;49.382;7.078;2024-02-21T05:28:24;6.30;99.90
46900;DHT22;32647;49.382;7.078;2024-02-21T05:31:10;6.30;99.90
46900;DHT22;32647;49.382;7.078;2024-02-21T05:33:56;6.30;99.90
46900;DHT22;32647;49.382;7.078;2024-02-21T05:36:43;6.30;99.90
46900;DHT22;32647;49.382;7.078;2024-02-21T05:39:29;6.30;99.90
46900;DHT22;32647;49.382;7.078;2024-02-21T05:42:15;6.30;99.90
46900;DHT22;32647;49.382;7.078;2024-02-21T05:45:01;6.30;99.90
46900;DHT22;32647;49.382;7.078;2024-02-21T05:47:47;6.30;99.90
46900;DHT22;32647;49.382;7.078;2024-02-21T05:50:33;6.20;99.90
46900;DHT22;32647;49.382;7.078;2024-02-21T05:53:19;6.20;99.90
46900;DHT22;32647;49.382;7.078;2024-02-21T05:56:13;6.20;99.90
46900;DHT22;32647;49.382;7.078;2024-02-21T05:58:59;6.20;99.90
46900;DHT22;32647;49.382;7.078;2024-02-21T06:01:45;6.30;99.90
46900;DHT22;32647;49.382;7.078;2024-02-21T06:04:31;6.30;99.90
46900;DHT22;32647;49.382;7.078;2024-02-21T06:07:17;6.20;99.90
46900;DHT22;32647;49.382;7.078;2024-02-21T06:10:03;6.30;99.90
46900;DHT22;32647;49.382;7.078;2024-02-21T06:12:49;6.20;99.90
46900;DHT22;32647;49.382;7.078;2024-02-21T06:15:35;6.20;99.90
46900;DHT22;32647;49.382;7.078;2024-02-21T06:18:21;6.20;99.90
46900;DHT22;32647;49.382;7.078;2024-02-21T06:21:07;6.20;99.90
46900;DHT22;32647;49.382;7.078;2024-02-21T06:23:53;6.20;99.90
46900;DHT22;32647;49.382;7.078;2024-02-21T06:26:40;6.20;99.90
46900;DHT22;32647;49.382;7.078;2024-02-21T06:29:26;6.20;99.90
46900;DHT22;32647;49.382;7.078;2024-02-21T06:32:12;6.30;99.90
46900;DHT22;32647;49.382;7.078;2024-02-21T06:34:58;6.20;99.90
46900;DHT22;32647;49.382;7.078;2024-02-21T06:37:44;6.20;99.90
46900;DHT22;32647;49.382;7.078;2024-02-21T06:40:36;6.20;99.90
46900;DHT22;32647;49.382;7.078;2024-02-21T06:43:25;6.20;99.90
46900;DHT22;32647;49.382;7.078;2024-02-21T06:46:11;6.20;99.90
46900;DHT22;32647;49.382;7.078;2024-02-21T06:48:58;6.20;99.90
46900;DHT22;32647;49.382;7.078;2024-02-21T06:51:44;6.20;99.90
46900;DHT22;32647;49.382;7.078;2024-02-21T06:54:30;6.20;99.90
46900;DHT22;32647;49.382;7.078;2024-02-21T06:57:16;6.20;99.90
46900;DHT22;32647;49.382;7.078;2024-02-21T07:00:02;6.20;99.90
46900;DHT22;32647;49.382;7.078;2024-02-21T07:02:48;6.20;99.90
46900;DHT22;32647;49.382;7.078;2024-02-21T07:05:34;6.20;99.90
46900;DHT22;32647;49.382;7.078;2024-02-21T07:08:20;6.20;99.90
46900;DHT22;32647;49.382;7.078;2024-02-21T07:11:07;6.10;99.90
46900;DHT22;32647;49.382;7.078;2024-02-21T07:13:53;6.10;99.90
46900;DHT22;32647;49.382;7.078;2024-02-21T07:16:39;6.00;99.90
46900;DHT22;32647;49.382;7.078;2024-02-21T07:19:25;6.10;99.90
46900;DHT22;32647;49.382;7.078;2024-02-21T07:22:11;6.20;99.90
46900;DHT22;32647;49.382;7.078;2024-02-21T07:24:57;6.20;99.90
46900;DHT22;32647;49.382;7.078;2024-02-21T07:27:44;6.30;99.90
46900;DHT22;32647;49.382;7.078;2024-02-21T07:30:30;6.30;99.90
46900;DHT22;32647;49.382;7.078;2024-02-21T07:33:16;6.40;99.90
46900;DHT22;32647;49.382;7.078;2024-02-21T07:36:06;6.40;99.90
46900;DHT22;32647;49.382;7.078;2024-02-21T07:38:53;6.40;99.90
46900;DHT22;32647;49.382;7.078;2024-02-21T07:41:38;6.50;99.90
46900;DHT22;32647;49.382;7.078;2024-02-21T07:44:26;6.50;99.90
46900;DHT22;32647;49.382;7.078;2024-02-21T07:47:11;6.50;99.90
46900;DHT22;32647;49.382;7.078;2024-02-21T07:49:57;6.60;99.90
46900;DHT22;32647;49.382;7.078;2024-02-21T07:52:43;6.60;99.90
46900;DHT22;32647;49.382;7.078;2024-02-21T07:55:29;6.70;99.90
46900;DHT22;32647;49.382;7.078;2024-02-21T07:58:15;6.70;99.90
46900;DHT22;32647;49.382;7.078;2024-02-21T08:01:01;6.70;99.90
46900;DHT22;32647;49.382;7.078;2024-02-21T08:03:47;6.70;99.90
46900;DHT22;32647;49.382;7.078;2024-02-21T08:06:33;6.80;99.90
46900;DHT22;32647;49.382;7.078;2024-02-21T08:09:20;6.80;99.90
46900;DHT22;32647;49.382;7.078;2024-02-21T08:12:06;6.80;99.90
46900;DHT22;32647;49.382;7.078;2024-02-21T08:14:52;6.90;99.90
46900;DHT22;32647;49.382;7.078;2024-02-21T08:17:38;7.00;99.90
46900;DHT22;32647;49.382;7.078;2024-02-21T08:20:24;7.00;99.90
46900;DHT22;32647;49.382;7.078;2024-02-21T08:23:10;7.00;99.90
46900;DHT22;32647;49.382;7.078;2024-02-21T08:25:56;7.00;99.90
46900;DHT22;32647;49.382;7.078;2024-02-21T08:28:42;7.00;99.90
46900;DHT22;32647;49.382;7.078;2024-02-21T08:31:28;7.10;99.90
46900;DHT22;32647;49.382;7.078;2024-02-21T08:34:16;7.20;99.90
46900;DHT22;32647;49.382;7.078;2024-02-21T08:37:03;7.30;99.90
46900;DHT22;32647;49.382;7.078;2024-02-21T08:39:49;7.40;99.90
46900;DHT22;32647;49.382;7.078;2024-02-21T08:42:36;7.40;99.90
46900;DHT22;32647;49.382;7.078;2024-02-21T08:45:22;7.40;99.90
46900;DHT22;32647;49.382;7.078;2024-02-21T08:48:08;7.50;99.90
46900;DHT22;32647;49.382;7.078;2024-02-21T08:50:54;7.50;99.90
46900;DHT22;32647;49.382;7.078;2024-02-21T08:53:40;7.50;99.90
46900;DHT22;32647;49.382;7.078;2024-02-21T08:56:26;7.50;99.90
46900;DHT22;32647;49.382;7.078;2024-02-21T08:59:12;7.40;99.90
46900;DHT22;32647;49.382;7.078;2024-02-21T09:01:58;7.40;99.90
46900;DHT22;32647;49.382;7.078;2024-02-21T09:04:44;7.50;99.90
46900;DHT22;32647;49.382;7.078;2024-02-21T09:07:30;7.50;99.90
46900;DHT22;32647;49.382;7.078;2024-02-21T09:10:16;7.70;99.90
46900;DHT22;32647;49.382;7.078;2024-02-21T09:13:02;7.90;99.90
46900;DHT22;32647;49.382;7.078;2024-02-21T09:15:49;7.90;99.90
46900;DHT22;32647;49.382;7.078;2024-02-21T09:18:35;8.00;99.90
46900;DHT22;32647;49.382;7.078;2024-02-21T09:21:21;8.00;99.90
46900;DHT22;32647;49.382;7.078;2024-02-21T09:24:07;8.00;99.90
46900;DHT22;32647;49.382;7.078;2024-02-21T09:26:53;8.00;99.90
46900;DHT22;32647;49.382;7.078;2024-02-21T09:29:39;8.20;99.90
46900;DHT22;32647;49.382;7.078;2024-02-21T09:32:25;8.30;99.90
46900;DHT22;32647;49.382;7.078;2024-02-21T09:35:11;8.40;99.90
46900;DHT22;32647;49.382;7.078;2024-02-21T09:37:58;8.30;99.90
46900;DHT22;32647;49.382;7.078;2024-02-21T09:40:44;8.20;99.90
46900;DHT22;32647;49.382;7.078;2024-02-21T09:43:30;8.20;99.90
46900;DHT22;32647;49.382;7.078;2024-02-21T09:46:18;8.10;99.90
46900;DHT22;32647;49.382;7.078;2024-02-21T09:52:07;8.30;99.90
46900;DHT22;32647;49.382;7.078;2024-02-21T09:54:54;8.50;99.90
46900;DHT22;32647;49.382;7.078;2024-02-21T09:57:39;8.40;99.90
46900;DHT22;32647;49.382;7.078;2024-02-21T10:00:25;8.40;99.90
46900;DHT22;32647;49.382;7.078;2024-02-21T10:03:11;8.50;99.90
46900;DHT22;32647;49.382;7.078;2024-02-21T10:05:59;8.60;99.90
46900;DHT22;32647;49.382;7.078;2024-02-21T10:08:52;8.70;99.90
46900;DHT22;32647;49.382;7.078;2024-02-21T10:11:38;8.80;99.90
46900;DHT22;32647;49.382;7.078;2024-02-21T10:14:25;9.00;99.90
46900;DHT22;32647;49.382;7.078;2024-02-21T10:17:16;9.10;99.90
46900;DHT22;32647;49.382;7.078;2024-02-21T10:20:11;9.10;99.90
46900;DHT22;32647;49.382;7.078;2024-02-21T10:23:04;9.10;99.90
46900;DHT22;32647;49.382;7.078;2024-02-21T10:26:06;9.00;99.90
46900;DHT22;32647;49.382;7.078;2024-02-21T10:28:52;8.80;99.90
46900;DHT22;32647;49.382;7.078;2024-02-21T10:31:40;8.80;99.90
46900;DHT22;32647;49.382;7.078;2024-02-21T10:34:26;9.00;99.90
46900;DHT22;32647;49.382;7.078;2024-02-21T10:37:12;8.80;99.90
46900;DHT22;32647;49.382;7.078;2024-02-21T10:39:58;8.90;99.90
46900;DHT22;32647;49.382;7.078;2024-02-21T10:42:44;8.90;99.90
46900;DHT22;32647;49.382;7.078;2024-02-21T10:45:35;9.00;99.90
46900;DHT22;32647;49.382;7.078;2024-02-21T10:48:41;9.10;99.90
46900;DHT22;32647;49.382;7.078;2024-02-21T10:51:27;9.00;99.90
46900;DHT22;32647;49.382;7.078;2024-02-21T10:57:23;8.90;99.90
46900;DHT22;32647;49.382;7.078;2024-02-21T11:00:11;9.00;99.90
46900;DHT22;32647;49.382;7.078;2024-02-21T11:02:59;8.90;99.90
46900;DHT22;32647;49.382;7.078;2024-02-21T11:05:45;9.00;99.90
46900;DHT22;32647;49.382;7.078;2024-02-21T11:08:32;9.10;99.90
46900;DHT22;32647;49.382;7.078;2024-02-21T11:11:18;9.30;99.90
46900;DHT22;32647;49.382;7.078;2024-02-21T11:14:19;9.30;99.90
46900;DHT22;32647;49.382;7.078;2024-02-21T11:17:19;9.30;99.90
46900;DHT22;32647;49.382;7.078;2024-02-21T11:20:14;9.20;99.90
46900;DHT22;32647;49.382;7.078;2024-02-21T11:23:01;9.20;99.90
46900;DHT22;32647;49.382;7.078;2024-02-21T11:25:47;9.10;99.90
46900;DHT22;32647;49.382;7.078;2024-02-21T11:28:33;9.10;99.90
46900;DHT22;32647;49.382;7.078;2024-02-21T11:31:19;9.10;99.90
46900;DHT22;32647;49.382;7.078;2024-02-21T11:34:05;9.20;99.90
46900;DHT22;32647;49.382;7.078;2024-02-21T11:36:52;9.10;99.90
46900;DHT22;32647;49.382;7.078;2024-02-21T11:39:38;9.20;99.90
46900;DHT22;32647;49.382;7.078;2024-02-21T11:42:27;9.30;99.90
46900;DHT22;32647;49.382;7.078;2024-02-21T11:45:15;9.20;99.90
46900;DHT22;32647;49.382;7.078;2024-02-21T11:48:01;9.00;99.90
46900;DHT22;32647;49.382;7.078;2024-02-21T11:50:56;9.00;99.90
46900;DHT22;32647;49.382;7.078;2024-02-21T11:53:42;9.00;99.90
46900;DHT22;32647;49.382;7.078;2024-02-21T11:56:28;9.00;99.90
46900;DHT22;32647;49.382;7.078;2024-02-21T11:59:14;9.20;99.90
46900;DHT22;32647;49.382;7.078;2024-02-21T12:02:00;9.20;99.90
46900;DHT22;32647;49.382;7.078;2024-02-21T12:04:48;9.10;99.90
46900;DHT22;32647;49.382;7.078;2024-02-21T12:07:36;9.20;99.90
46900;DHT22;32647;49.382;7.078;2024-02-21T12:10:28;9.40;99.90
46900;DHT22;32647;49.382;7.078;2024-02-21T12:13:14;9.60;99.90
46900;DHT22;32647;49.382;7.078;2024-02-21T12:16:00;9.70;99.90
46900;DHT22;32647;49.382;7.078;2024-02-21T12:18:46;9.60;99.90
46900;DHT22;32647;49.382;7.078;2024-02-21T12:21:33;9.40;99.90
46900;DHT22;32647;49.382;7.078;2024-02-21T12:24:26;9.20;99.90
46900;DHT22;32647;49.382;7.078;2024-02-21T12:27:12;9.30;99.90
46900;DHT22;32647;49.382;7.078;2024-02-21T12:29:58;9.30;99.90
46900;DHT22;32647;49.382;7.078;2024-02-21T12:32:45;9.30;99.90
46900;DHT22;32647;49.382;7.078;2024-02-21T12:35:31;9.10;99.90
46900;DHT22;32647;49.382;7.078;2024-02-21T12:38:18;9.20;99.90
46900;DHT22;32647;49.382;7.078;2024-02-21T12:41:06;9.20;99.90
46900;DHT22;32647;49.382;7.078;2024-02-21T12:43:53;9.20;99.90
46900;DHT22;32647;49.382;7.078;2024-02-21T12:46:39;9.30;99.90
46900;DHT22;32647;49.382;7.078;2024-02-21T12:49:25;9.30;99.90
46900;DHT22;32647;49.382;7.078;2024-02-21T12:52:15;9.30;99.90
46900;DHT22;32647;49.382;7.078;2024-02-21T12:55:01;9.40;99.90
46900;DHT22;32647;49.382;7.078;2024-02-21T12:57:46;9.30;99.90
46900;DHT22;32647;49.382;7.078;2024-02-21T13:00:33;9.10;99.90
46900;DHT22;32647;49.382;7.078;2024-02-21T13:03:21;9.20;99.90
46900;DHT22;32647;49.382;7.078;2024-02-21T13:06:07;9.30;99.90
46900;DHT22;32647;49.382;7.078;2024-02-21T13:08:56;9.10;99.90
46900;DHT22;32647;49.382;7.078;2024-02-21T13:11:42;9.10;99.90
46900;DHT22;32647;49.382;7.078;2024-02-21T13:14:30;9.20;99.90
46900;DHT22;32647;49.382;7.078;2024-02-21T13:17:18;9.30;99.90
46900;DHT22;32647;49.382;7.078;2024-02-21T13:20:05;9.40;99.90
46900;DHT22;32647;49.382;7.078;2024-02-21T13:22:51;9.40;99.90
46900;DHT22;32647;49.382;7.078;2024-02-21T13:25:37;9.40;99.90
46900;DHT22;32647;49.382;7.078;2024-02-21T13:28:23;9.50;99.90
46900;DHT22;32647;49.382;7.078;2024-02-21T13:31:09;9.60;99.90
46900;DHT22;32647;49.382;7.078;2024-02-21T13:33:55;9.60;99.90
46900;DHT22;32647;49.382;7.078;2024-02-21T13:36:41;9.60;99.90
46900;DHT22;32647;49.382;7.078;2024-02-21T13:39:27;9.70;99.90
46900;DHT22;32647;49.382;7.078;2024-02-21T13:42:13;9.70;99.90
46900;DHT22;32647;49.382;7.078;2024-02-21T13:44:59;9.70;99.90
46900;DHT22;32647;49.382;7.078;2024-02-21T13:47:45;9.70;99.90
46900;DHT22;32647;49.382;7.078;2024-02-21T13:50:31;9.70;99.90
46900;DHT22;32647;49.382;7.078;2024-02-21T13:53:17;9.60;99.90
46900;DHT22;32647;49.382;7.078;2024-02-21T13:56:04;9.60;99.90
46900;DHT22;32647;49.382;7.078;2024-02-21T13:58:50;9.50;99.90
46900;DHT22;32647;49.382;7.078;2024-02-21T14:01:36;9.70;99.90
46900;DHT22;32647;49.382;7.078;2024-02-21T14:04:22;9.60;99.90
46900;DHT22;32647;49.382;7.078;2024-02-21T14:07:08;9.60;99.90
46900;DHT22;32647;49.382;7.078;2024-02-21T14:09:54;9.50;99.90
46900;DHT22;32647;49.382;7.078;2024-02-21T14:12:40;9.40;99.90
46900;DHT22;32647;49.382;7.078;2024-02-21T14:15:26;9.50;99.90
46900;DHT22;32647;49.382;7.078;2024-02-21T14:18:12;9.50;99.90
46900;DHT22;32647;49.382;7.078;2024-02-21T14:20:58;9.50;99.90
46900;DHT22;32647;49.382;7.078;2024-02-21T14:23:44;9.50;99.90
46900;DHT22;32647;49.382;7.078;2024-02-21T14:26:30;9.40;99.90
46900;DHT22;32647;49.382;7.078;2024-02-21T14:29:16;9.50;99.90
46900;DHT22;32647;49.382;7.078;2024-02-21T14:32:02;9.50;99.90
46900;DHT22;32647;49.382;7.078;2024-02-21T14:34:48;9.50;99.90
46900;DHT22;32647;49.382;7.078;2024-02-21T14:37:35;9.50;99.90
46900;DHT22;32647;49.382;7.078;2024-02-21T14:40:20;9.50;99.90
46900;DHT22;32647;49.382;7.078;2024-02-21T14:43:06;9.40;99.90
46900;DHT22;32647;49.382;7.078;2024-02-21T14:45:52;9.40;99.90
46900;DHT22;32647;49.382;7.078;2024-02-21T14:48:38;9.50;99.90
46900;DHT22;32647;49.382;7.078;2024-02-21T14:51:24;9.50;99.90
46900;DHT22;32647;49.382;7.078;2024-02-21T14:54:10;9.50;99.90
46900;DHT22;32647;49.382;7.078;2024-02-21T14:56:56;9.50;99.90
46900;DHT22;32647;49.382;7.078;2024-02-21T14:59:43;9.50;99.90
46900;DHT22;32647;49.382;7.078;2024-02-21T15:02:29;9.60;99.90
46900;DHT22;32647;49.382;7.078;2024-02-21T15:05:15;9.70;99.90
46900;DHT22;32647;49.382;7.078;2024-02-21T15:08:01;9.70;99.90
46900;DHT22;32647;49.382;7.078;2024-02-21T15:10:47;9.60;99.90
46900;DHT22;32647;49.382;7.078;2024-02-21T15:13:35;9.60;99.90
46900;DHT22;32647;49.382;7.078;2024-02-21T15:16:23;9.60;99.90
46900;DHT22;32647;49.382;7.078;2024-02-21T15:19:08;9.60;99.90
46900;DHT22;32647;49.382;7.078;2024-02-21T15:21:54;9.50;99.90
46900;DHT22;32647;49.382;7.078;2024-02-21T15:24:41;9.50;99.90
46900;DHT22;32647;49.382;7.078;2024-02-21T15:27:27;9.50;99.90
46900;DHT22;32647;49.382;7.078;2024-02-21T15:30:14;9.50;99.90
46900;DHT22;32647;49.382;7.078;2024-02-21T15:33:00;9.60;99.90
46900;DHT22;32647;49.382;7.078;2024-02-21T15:35:47;9.50;99.90
46900;DHT22;32647;49.382;7.078;2024-02-21T15:38:33;9.50;99.90
46900;DHT22;32647;49.382;7.078;2024-02-21T15:41:19;9.50;99.90
46900;DHT22;32647;49.382;7.078;2024-02-21T15:44:07;9.50;99.90
46900;DHT22;32647;49.382;7.078;2024-02-21T15:46:53;9.60;99.90
46900;DHT22;32647;49.382;7.078;2024-02-21T15:49:39;9.50;99.90
46900;DHT22;32647;49.382;7.078;2024-02-21T15:52:24;9.50;99.90
46900;DHT22;32647;49.382;7.078;2024-02-21T15:55:10;9.50;99.90
46900;DHT22;32647;49.382;7.078;2024-02-21T15:57:58;9.50;99.90
46900;DHT22;32647;49.382;7.078;2024-02-21T16:00:44;9.40;99.90
46900;DHT22;32647;49.382;7.078;2024-02-21T16:03:29;9.40;99.90
46900;DHT22;32647;49.382;7.078;2024-02-21T16:06:16;9.40;99.90
46900;DHT22;32647;49.382;7.078;2024-02-21T16:09:02;9.40;99.90
46900;DHT22;32647;49.382;7.078;2024-02-21T16:11:50;9.40;99.90
46900;DHT22;32647;49.382;7.078;2024-02-21T16:14:36;9.40;99.90
46900;DHT22;32647;49.382;7.078;2024-02-21T16:17:23;9.30;78.10
46900;DHT22;32647;49.382;7.078;2024-02-21T16:20:09;9.30;1.00
46900;DHT22;32647;49.382;7.078;2024-02-21T16:22:56;9.30;1.00
46900;DHT22;32647;49.382;7.078;2024-02-21T16:25:45;9.10;1.00
46900;DHT22;32647;49.382;7.078;2024-02-21T16:28:33;9.10;1.00
46900;DHT22;32647;49.382;7.078;2024-02-21T16:31:19;9.10;1.00
46900;DHT22;32647;49.382;7.078;2024-02-21T16:34:05;9.10;1.00
46900;DHT22;32647;49.382;7.078;2024-02-21T16:36:54;9.10;1.00
46900;DHT22;32647;49.382;7.078;2024-02-21T16:39:40;9.00;1.00
46900;DHT22;32647;49.382;7.078;2024-02-21T16:42:26;9.00;1.00
46900;DHT22;32647;49.382;7.078;2024-02-21T16:45:12;8.90;1.00
46900;DHT22;32647;49.382;7.078;2024-02-21T16:47:58;9.00;1.00
46900;DHT22;32647;49.382;7.078;2024-02-21T16:50:44;9.00;1.00
46900;DHT22;32647;49.382;7.078;2024-02-21T16:53:30;9.00;1.00
46900;DHT22;32647;49.382;7.078;2024-02-21T16:56:16;9.00;1.00
46900;DHT22;32647;49.382;7.078;2024-02-21T16:59:04;9.00;1.00
46900;DHT22;32647;49.382;7.078;2024-02-21T17:01:50;8.90;1.00
46900;DHT22;32647;49.382;7.078;2024-02-21T17:04:39;8.90;1.00
46900;DHT22;32647;49.382;7.078;2024-02-21T17:07:25;8.90;1.00
46900;DHT22;32647;49.382;7.078;2024-02-21T17:10:11;8.90;1.00
46900;DHT22;32647;49.382;7.078;2024-02-21T17:12:57;8.80;1.00
46900;DHT22;32647;49.382;7.078;2024-02-21T17:15:44;8.80;1.00
46900;DHT22;32647;49.382;7.078;2024-02-21T17:18:30;8.90;1.00
46900;DHT22;32647;49.382;7.078;2024-02-21T17:21:16;8.90;1.00
46900;DHT22;32647;49.382;7.078;2024-02-21T17:24:02;8.90;1.00
46900;DHT22;32647;49.382;7.078;2024-02-21T17:26:48;8.90;1.00
46900;DHT22;32647;49.382;7.078;2024-02-21T17:29:34;8.80;1.00
46900;DHT22;32647;49.382;7.078;2024-02-21T17:32:20;8.80;1.00
46900;DHT22;32647;49.382;7.078;2024-02-21T17:35:06;8.90;1.00
46900;DHT22;32647;49.382;7.078;2024-02-21T17:37:52;8.90;1.00
46900;DHT22;32647;49.382;7.078;2024-02-21T17:40:38;8.90;1.00
46900;DHT22;32647;49.382;7.078;2024-02-21T17:43:24;8.80;1.00
46900;DHT22;32647;49.382;7.078;2024-02-21T17:46:11;8.90;1.00
46900;DHT22;32647;49.382;7.078;2024-02-21T17:48:57;8.80;5.90
46900;DHT22;32647;49.382;7.078;2024-02-21T17:51:44;8.80;1.00
46900;DHT22;32647;49.382;7.078;2024-02-21T17:54:30;8.80;1.00
46900;DHT22;32647;49.382;7.078;2024-02-21T17:57:16;8.70;4.50